createdAt,value
2018-04-11T00:00:03.135Z,2.10
2018-04-11T00:02:06.119Z,5.47
2018-04-11T00:04:09.918Z,6.13
2018-04-11T00:06:13.640Z,4.70
2018-04-11T00:08:16.590Z,4.43
2018-04-11T00:10:20.366Z,6.33
2018-04-11T00:12:23.387Z,12.30
2018-04-11T00:14:27.311Z,7.73
2018-04-11T00:16:30.258Z,6.57
2018-04-11T00:18:33.949Z,11.93
2018-04-11T00:20:37.695Z,10.20
2018-04-11T00:22:40.621Z,9.70
2018-04-11T00:24:44.334Z,10.87
2018-04-11T00:26:47.293Z,17.87
2018-04-11T00:28:50.207Z,11.50
2018-04-11T00:30:53.913Z,12.10
2018-04-11T00:32:57.637Z,12.37
2018-04-11T00:35:00.561Z,16.07
2018-04-11T00:37:03.522Z,17.30
2018-04-11T00:39:06.446Z,15.10
2018-04-11T00:41:09.370Z,19.40
2018-04-11T00:43:13.168Z,14.63
2018-04-11T00:45:16.102Z,18.40
2018-04-11T00:47:19.851Z,22.07
2018-04-11T00:49:22.794Z,22.10
2018-04-11T00:51:26.617Z,15.90
2018-04-11T00:53:30.369Z,18.30
2018-04-11T00:55:33.445Z,23.87
2018-04-11T00:57:36.414Z,26.40
2018-04-11T00:59:39.342Z,22.30
2018-04-11T01:01:43.078Z,24.93
2018-04-11T01:03:46.018Z,16.97
2018-04-11T01:05:48.959Z,20.17
2018-04-11T01:07:51.934Z,22.37
2018-04-11T01:09:54.885Z,25.27
2018-04-11T01:11:58.612Z,22.73
2018-04-11T01:14:01.558Z,20.00
2018-04-11T01:16:04.486Z,28.97
2018-04-11T01:18:07.440Z,19.57
2018-04-11T01:20:11.151Z,17.30
2018-04-11T01:22:14.228Z,16.67
2018-04-11T01:24:17.904Z,15.27
2018-04-11T01:26:21.580Z,16.27
2018-04-11T01:28:24.525Z,21.67
2018-04-11T01:30:27.435Z,14.43
2018-04-11T01:32:30.397Z,18.20
2018-04-11T01:34:33.452Z,15.63
2018-04-11T01:36:37.128Z,13.43
2018-04-11T01:38:40.954Z,12.37
2018-04-11T01:40:44.755Z,12.73
2018-04-11T01:42:48.460Z,14.03
2018-04-11T01:44:51.381Z,14.23
2018-04-11T01:46:54.319Z,10.93
2018-04-11T01:48:57.996Z,20.43
2018-04-11T01:51:01.699Z,13.17
2018-04-11T01:53:05.421Z,16.53
2018-04-11T01:55:09.100Z,15.90
2018-04-11T01:57:12.813Z,15.30
2018-04-11T01:59:16.504Z,19.63
2018-04-11T02:01:20.192Z,15.50
2018-04-11T02:03:23.226Z,9.63
2018-04-11T02:05:26.148Z,13.67
2018-04-11T02:07:29.117Z,10.53
2018-04-11T02:09:32.036Z,15.53
2018-04-11T02:11:36.467Z,11.70
2018-04-11T02:13:40.897Z,16.50
2018-04-11T02:15:43.832Z,15.07
2018-04-11T02:17:46.770Z,11.97
2018-04-11T02:19:49.714Z,9.27
2018-04-11T02:21:53.412Z,13.30
2018-04-11T02:23:57.096Z,13.27
2018-04-11T02:26:00.024Z,9.50
2018-04-11T02:28:02.953Z,10.03
2018-04-11T02:30:05.975Z,12.00
2018-04-11T02:32:09.778Z,12.20
2018-04-11T02:34:13.443Z,12.27
2018-04-11T02:36:16.376Z,8.43
2018-04-11T02:38:19.443Z,11.23
2018-04-11T02:40:23.246Z,8.17
2018-04-11T02:42:26.256Z,13.88
2018-04-11T02:44:29.168Z,9.20
2018-04-11T02:46:32.076Z,8.40
2018-04-11T02:48:35.768Z,11.80
2018-04-11T02:50:40.208Z,11.90
2018-04-11T02:52:43.906Z,8.83
2018-04-11T02:54:47.568Z,9.90
2018-04-11T02:56:50.594Z,4.73
2018-04-11T02:58:54.289Z,8.17
2018-04-11T03:00:57.965Z,6.87
2018-04-11T03:03:00.909Z,6.83
2018-04-11T03:05:03.816Z,7.70
2018-04-11T03:07:06.752Z,4.97
2018-04-11T03:09:09.668Z,8.83
2018-04-11T03:11:12.585Z,5.97
2018-04-11T03:13:16.298Z,5.63
2018-04-11T03:15:19.977Z,8.60
2018-04-11T03:17:22.900Z,6.37
2018-04-11T03:19:25.811Z,8.40
2018-04-11T03:21:28.714Z,6.10
2018-04-11T03:23:31.647Z,9.03
2018-04-11T03:25:35.526Z,9.63
2018-04-11T03:27:39.204Z,9.87
2018-04-11T03:29:42.907Z,8.70
2018-04-11T03:31:46.593Z,7.40
2018-04-11T03:33:49.520Z,12.90
2018-04-11T03:35:52.452Z,14.00
2018-04-11T03:37:55.395Z,14.90
2018-04-11T03:39:58.312Z,10.90
2018-04-11T03:42:01.261Z,11.07
2018-04-11T03:44:04.205Z,7.47
2018-04-11T03:46:07.876Z,10.07
2018-04-11T03:48:10.816Z,9.37
2018-04-11T03:50:13.730Z,12.03
2018-04-11T03:52:16.676Z,9.53
2018-04-11T03:54:19.595Z,11.10
2018-04-11T03:56:22.521Z,16.57
2018-04-11T03:58:25.460Z,7.80
2018-04-11T04:00:28.369Z,8.90
2018-04-11T04:02:31.295Z,8.47
2018-04-11T04:04:34.199Z,10.93
2018-04-11T04:06:37.236Z,10.20
2018-04-11T04:08:41.039Z,10.30
2018-04-11T04:10:44.708Z,10.37
2018-04-11T04:12:48.468Z,9.50
2018-04-11T04:15:04.220Z,12.30
2018-04-11T04:17:19.776Z,9.50
2018-04-11T04:19:35.294Z,11.70
2018-04-11T04:21:38.208Z,8.73
2018-04-11T04:23:41.150Z,10.60
2018-04-11T04:25:44.072Z,8.07
2018-04-11T04:27:46.980Z,9.00
2018-04-11T04:29:49.940Z,11.93
2018-04-11T04:31:52.846Z,10.63
2018-04-11T04:33:56.664Z,8.93
2018-04-11T04:35:59.628Z,7.03
2018-04-11T04:38:03.560Z,9.23
2018-04-11T04:40:07.353Z,8.70
2018-04-11T04:42:11.030Z,9.60
2018-04-11T04:44:14.744Z,10.17
2018-04-11T04:46:18.411Z,8.60
2018-04-11T04:48:21.392Z,11.20
2018-04-11T04:50:24.322Z,10.47
2018-04-11T04:52:27.996Z,10.43
2018-04-11T04:54:31.702Z,9.63
2018-04-11T04:56:35.386Z,16.03
2018-04-11T04:58:38.312Z,7.10
2018-04-11T05:00:41.227Z,11.88
2018-04-11T05:02:44.145Z,8.53
2018-04-11T05:04:47.861Z,11.20
2018-04-11T05:06:51.535Z,11.63
2018-04-11T05:08:55.365Z,10.73
2018-04-11T05:10:59.060Z,7.93
2018-04-11T05:13:02.732Z,11.03
2018-04-11T05:15:05.692Z,6.40
2018-04-11T05:17:08.599Z,6.97
2018-04-11T05:19:11.532Z,9.57
2018-04-11T05:21:14.460Z,6.37
2018-04-11T05:23:17.411Z,7.60
2018-04-11T05:25:21.141Z,6.40
2018-04-11T05:27:24.078Z,7.23
2018-04-11T05:29:27.016Z,8.70
2018-04-11T05:31:30.684Z,7.97
2018-04-11T05:33:33.625Z,9.13
2018-04-11T05:35:36.551Z,7.00
2018-04-11T05:37:39.582Z,14.33
2018-04-11T05:39:43.305Z,8.37
2018-04-11T05:41:46.224Z,4.50
2018-04-11T05:43:49.246Z,7.10
2018-04-11T05:45:52.916Z,5.83
2018-04-11T05:47:55.851Z,6.27
2018-04-11T05:49:58.786Z,6.60
2018-04-11T05:52:01.800Z,6.17
2018-04-11T05:54:05.594Z,12.53
2018-04-11T05:56:09.264Z,32.93
2018-04-11T05:58:12.205Z,30.03
2018-04-11T06:00:15.409Z,11.83
2018-04-11T06:02:18.344Z,11.43
2018-04-11T06:04:22.016Z,11.53
2018-04-11T06:06:25.222Z,8.00
2018-04-11T06:08:29.035Z,7.30
2018-04-11T06:10:32.708Z,12.60
2018-04-11T06:12:35.669Z,11.10
2018-04-11T06:14:38.577Z,6.60
2018-04-11T06:16:41.515Z,13.20
2018-04-11T06:18:44.517Z,7.30
2018-04-11T06:20:47.421Z,10.07
2018-04-11T06:22:51.148Z,9.00
2018-04-11T06:24:54.821Z,10.37
2018-04-11T06:26:58.543Z,7.93
2018-04-11T06:29:02.221Z,8.27
2018-04-11T06:31:06.047Z,8.53
2018-04-11T06:33:09.720Z,7.60
2018-04-11T06:35:13.405Z,8.53
2018-04-11T06:37:16.337Z,7.80
2018-04-11T06:39:19.252Z,7.70
2018-04-11T06:41:22.193Z,11.53
2018-04-11T06:43:25.112Z,7.70
2018-04-11T06:45:28.029Z,8.20
2018-04-11T06:47:30.956Z,8.97
2018-04-11T06:49:33.884Z,15.40
2018-04-11T06:51:38.433Z,10.83
2018-04-11T06:53:42.128Z,12.63
2018-04-11T06:55:46.097Z,11.57
2018-04-11T06:57:49.061Z,10.73
2018-04-11T06:59:51.967Z,13.73
2018-04-11T07:01:54.914Z,16.37
2018-04-11T07:03:57.943Z,11.17
2018-04-11T07:06:00.865Z,12.80
2018-04-11T07:08:03.796Z,14.60
2018-04-11T07:10:06.818Z,11.43
2018-04-11T07:12:11.860Z,29.30
2018-04-11T07:14:14.781Z,17.93
2018-04-11T07:16:17.697Z,22.13
2018-04-11T07:18:21.429Z,13.80
2018-04-11T07:20:24.352Z,18.97
2018-04-11T07:22:27.300Z,13.00
2018-04-11T07:24:30.212Z,13.77
2018-04-11T07:26:33.157Z,16.57
2018-04-11T07:28:36.068Z,18.90
2018-04-11T07:30:38.984Z,15.27
2018-04-11T07:32:41.915Z,13.50
2018-04-11T07:34:44.836Z,16.63
2018-04-11T07:36:47.878Z,22.80
2018-04-11T07:38:50.809Z,16.27
2018-04-11T07:40:53.736Z,18.43
2018-04-11T07:42:56.825Z,16.10
2018-04-11T07:44:59.720Z,16.50
2018-04-11T07:47:02.766Z,15.83
2018-04-11T07:49:06.437Z,18.27
2018-04-11T07:51:09.446Z,12.57
2018-04-11T07:53:13.248Z,16.93
2018-04-11T07:55:16.936Z,20.50
2018-04-11T07:57:20.647Z,15.63
2018-04-11T07:59:24.316Z,12.93
2018-04-11T08:01:27.258Z,10.63
2018-04-11T08:03:30.247Z,7.47
2018-04-11T08:05:33.157Z,9.13
2018-04-11T08:07:36.106Z,6.93
2018-04-11T08:09:39.013Z,8.20
2018-04-11T08:11:41.963Z,5.67
2018-04-11T08:13:44.878Z,9.73
2018-04-11T08:15:47.781Z,7.67
2018-04-11T08:17:50.991Z,11.90
2018-04-11T08:19:54.644Z,11.13
2018-04-11T08:21:58.368Z,9.10
2018-04-11T08:24:01.625Z,6.80
2018-04-11T08:26:04.523Z,7.73
2018-04-11T08:28:07.544Z,6.27
2018-04-11T08:30:11.363Z,7.97
2018-04-11T08:32:14.289Z,7.90
2018-04-11T08:34:17.223Z,6.00
2018-04-11T08:36:20.132Z,8.93
2018-04-11T08:38:23.052Z,8.83
2018-04-11T08:40:26.782Z,11.00
2018-04-11T08:42:29.692Z,9.80
2018-04-11T08:44:32.621Z,9.33
2018-04-11T08:46:35.737Z,8.33
2018-04-11T08:48:38.662Z,9.17
2018-04-11T08:50:41.585Z,10.10
2018-04-11T08:52:45.289Z,6.90
2018-04-11T08:54:49.003Z,10.20
2018-04-11T08:56:52.703Z,11.33
2018-04-11T08:58:55.628Z,6.67
2018-04-11T09:00:58.630Z,10.07
2018-04-11T09:03:01.552Z,8.67
2018-04-11T09:05:04.625Z,7.83
2018-04-11T09:07:08.324Z,7.60
2018-04-11T09:09:11.230Z,11.93
2018-04-11T09:11:14.282Z,13.63
2018-04-11T09:13:17.976Z,7.80
2018-04-11T09:15:21.663Z,16.10
2018-04-11T09:17:25.485Z,10.50
2018-04-11T09:19:29.209Z,9.93
2018-04-11T09:21:32.116Z,9.00
2018-04-11T09:23:35.148Z,7.97
2018-04-11T09:25:38.816Z,7.10
2018-04-11T09:27:41.753Z,10.43
2018-04-11T09:29:45.014Z,8.32
2018-04-11T09:31:48.754Z,4.90
2018-04-11T09:33:51.668Z,8.70
2018-04-11T09:35:54.567Z,7.70
2018-04-11T09:37:58.293Z,6.33
2018-04-11T09:40:01.738Z,6.83
2018-04-11T09:42:04.688Z,8.87
2018-04-11T09:44:07.606Z,7.17
2018-04-11T09:46:12.048Z,9.50
2018-04-11T09:48:15.743Z,10.30
2018-04-11T09:50:19.428Z,31.53
2018-04-11T09:52:23.260Z,7.43
2018-04-11T09:54:26.923Z,8.33
2018-04-11T09:56:29.934Z,4.97
2018-04-11T09:58:33.642Z,4.33
2018-04-11T10:00:37.316Z,5.37
2018-04-11T10:02:40.255Z,8.03
2018-04-11T10:04:43.160Z,4.30
2018-04-11T10:06:46.072Z,4.07
2018-04-11T10:08:49.785Z,3.50
2018-04-11T10:10:53.547Z,3.17
2018-04-11T10:12:56.574Z,3.40
2018-04-11T10:15:00.245Z,3.17
2018-04-11T10:17:03.165Z,4.50
2018-04-11T10:19:06.158Z,4.50
2018-04-11T10:21:09.910Z,3.97
2018-04-11T10:23:12.852Z,6.90
2018-04-11T10:25:15.760Z,5.43
2018-04-11T10:27:18.707Z,5.27
2018-04-11T10:29:21.612Z,4.63
2018-04-11T10:31:24.521Z,4.73
2018-04-11T10:33:27.457Z,5.57
2018-04-11T10:35:30.368Z,4.60
2018-04-11T10:37:33.390Z,5.32
2018-04-11T10:39:36.306Z,4.27
2018-04-11T10:41:39.229Z,4.57
2018-04-11T10:43:42.340Z,4.60
2018-04-11T10:45:46.017Z,8.20
2018-04-11T10:47:48.968Z,12.53
2018-04-11T10:49:51.885Z,7.60
2018-04-11T10:51:55.586Z,13.13
2018-04-11T10:53:58.533Z,14.07
2018-04-11T10:56:01.489Z,11.20
2018-04-11T10:58:04.449Z,10.03
2018-04-11T11:00:08.124Z,10.87
2018-04-11T11:02:11.131Z,10.73
2018-04-11T11:04:14.822Z,9.90
2018-04-11T11:06:18.504Z,9.73
2018-04-11T11:08:21.515Z,10.50
2018-04-11T11:10:25.188Z,11.27
2018-04-11T11:12:28.120Z,8.20
2018-04-11T11:14:31.179Z,10.03
2018-04-11T11:16:36.296Z,11.90
2018-04-11T11:18:39.208Z,10.40
2018-04-11T11:20:54.080Z,8.77
2018-04-11T11:22:56.993Z,7.20
2018-04-11T11:25:00.746Z,6.80
2018-04-11T11:27:03.676Z,7.50
2018-04-11T11:29:06.592Z,4.50
2018-04-11T11:31:10.293Z,7.70
2018-04-11T11:33:14.001Z,3.90
2018-04-11T11:35:17.803Z,4.80
2018-04-11T11:37:21.480Z,7.33
2018-04-11T11:39:25.157Z,3.80
2018-04-11T11:41:28.156Z,3.43
2018-04-11T11:43:31.169Z,5.10
2018-04-11T11:45:34.861Z,8.60
2018-04-11T11:47:38.535Z,4.60
2018-04-11T11:49:41.452Z,4.27
2018-04-11T11:51:45.173Z,2.43
2018-04-11T11:53:48.089Z,4.00
2018-04-11T11:55:51.117Z,2.00
2018-04-11T11:57:54.792Z,5.97
2018-04-11T11:59:58.480Z,10.60
2018-04-11T12:02:01.526Z,2.60
2018-04-11T12:04:04.432Z,4.37
2018-04-11T12:06:07.485Z,1.77
2018-04-11T12:08:10.388Z,3.03
2018-04-11T12:10:13.326Z,5.50
2018-04-11T12:12:16.252Z,2.57
2018-04-11T12:14:19.164Z,2.17
2018-04-11T12:16:23.624Z,2.30
2018-04-11T12:18:26.532Z,1.40
2018-04-11T12:20:29.470Z,2.10
2018-04-11T12:22:33.141Z,1.20
2018-04-11T12:24:37.556Z,2.53
2018-04-11T12:26:40.504Z,1.40
2018-04-11T12:28:43.407Z,2.43
2018-04-11T12:30:46.345Z,1.57
2018-04-11T12:32:49.285Z,2.60
2018-04-11T12:34:52.216Z,1.70
2018-04-11T12:36:55.157Z,1.50
2018-04-11T12:38:58.837Z,1.40
2018-04-11T12:41:01.860Z,1.90
2018-04-11T12:43:05.510Z,2.47
2018-04-11T12:45:08.447Z,1.10
2018-04-11T12:47:12.244Z,1.13
2018-04-11T12:49:17.416Z,1.20
2018-04-11T12:51:21.102Z,2.07
2018-04-11T12:53:24.011Z,1.30
2018-04-11T12:55:26.919Z,1.43
2018-04-11T12:57:30.631Z,1.23
2018-04-11T12:59:34.298Z,1.13
2018-04-11T13:01:37.253Z,1.40
2018-04-11T13:03:40.156Z,1.60
2018-04-11T13:05:43.092Z,2.03
2018-04-11T13:07:46.008Z,1.13
2018-04-11T13:09:48.915Z,1.23
2018-04-11T13:11:53.465Z,1.70
2018-04-11T13:13:56.381Z,2.57
2018-04-11T13:15:59.338Z,1.53
2018-04-11T13:18:02.269Z,7.40
2018-04-11T13:20:05.197Z,2.50
2018-04-11T13:22:08.891Z,1.10
2018-04-11T13:24:12.592Z,1.53
2018-04-11T13:26:16.277Z,4.23
2018-04-11T13:28:19.964Z,1.73
2018-04-11T13:30:22.900Z,11.70
2018-04-11T13:32:25.841Z,2.10
2018-04-11T13:34:29.520Z,1.67
2018-04-11T13:36:32.517Z,2.50
2018-04-11T13:38:35.420Z,1.30
2018-04-11T13:40:39.089Z,1.53
2018-04-11T13:42:42.017Z,1.53
2018-04-11T13:44:45.800Z,1.80
2018-04-11T13:46:49.483Z,0.90
2018-04-11T13:48:53.925Z,1.87
2018-04-11T13:50:56.832Z,1.70
2018-04-11T13:52:59.768Z,1.00
2018-04-11T13:55:02.721Z,3.93
2018-04-11T13:57:05.752Z,1.50
2018-04-11T13:59:09.545Z,1.80
2018-04-11T14:01:13.212Z,1.97
2018-04-11T14:03:16.157Z,1.83
2018-04-11T14:05:19.216Z,2.50
2018-04-11T14:07:22.915Z,2.60
2018-04-11T14:09:26.617Z,1.20
2018-04-11T14:11:30.277Z,1.47
2018-04-11T14:13:33.297Z,1.13
2018-04-11T14:15:36.274Z,1.10
2018-04-11T14:17:39.979Z,1.20
2018-04-11T14:19:43.651Z,3.03
2018-04-11T14:21:46.670Z,1.63
2018-04-11T14:23:50.466Z,1.00
2018-04-11T14:25:54.173Z,2.37
2018-04-11T14:27:57.966Z,1.47
2018-04-11T14:30:01.625Z,0.80
2018-04-11T14:32:04.548Z,1.20
2018-04-11T14:34:08.215Z,1.60
2018-04-11T14:36:12.628Z,10.73
2018-04-11T14:38:15.561Z,1.60
2018-04-11T14:40:18.468Z,3.70
2018-04-11T14:42:21.436Z,3.00
2018-04-11T14:44:24.493Z,2.83
2018-04-11T14:46:28.165Z,1.53
2018-04-11T14:48:31.094Z,1.40
2018-04-11T14:50:34.000Z,1.30
2018-04-11T14:52:36.934Z,3.13
2018-04-11T14:54:39.905Z,1.87
2018-04-11T14:56:43.572Z,6.33
2018-04-11T14:58:46.526Z,5.40
2018-04-11T15:00:49.428Z,2.40
2018-04-11T15:02:52.385Z,7.23
2018-04-11T15:04:55.288Z,4.60
2018-04-11T15:06:58.200Z,5.90
2018-04-11T15:09:01.117Z,0.93
2018-04-11T15:11:04.028Z,2.70
2018-04-11T15:13:06.971Z,1.13
2018-04-11T15:15:10.641Z,3.77
2018-04-11T15:17:13.551Z,1.87
2018-04-11T15:19:17.251Z,1.67
2018-04-11T15:21:20.929Z,1.73
2018-04-11T15:23:24.636Z,1.47
2018-04-11T15:25:28.324Z,1.00
2018-04-11T15:27:31.390Z,0.80
2018-04-11T15:29:34.280Z,1.10
2018-04-11T15:31:37.301Z,1.60
2018-04-11T15:33:40.314Z,1.98
2018-04-11T15:35:43.249Z,1.33
2018-04-11T15:37:46.169Z,1.10
2018-04-11T15:39:49.436Z,1.57
2018-04-11T15:41:52.380Z,1.20
2018-04-11T15:43:56.836Z,0.97
2018-04-11T15:46:00.785Z,0.93
2018-04-11T15:48:03.796Z,2.53
2018-04-11T15:50:06.786Z,1.10
2018-04-11T15:52:09.696Z,1.67
2018-04-11T15:54:12.642Z,11.40
2018-04-11T15:56:15.559Z,4.33
2018-04-11T15:58:19.354Z,3.27
2018-04-11T16:00:22.275Z,3.97
2018-04-11T16:02:25.184Z,0.90
2018-04-11T16:04:28.568Z,1.10
2018-04-11T16:06:31.477Z,3.00
2018-04-11T16:08:35.294Z,0.90
2018-04-11T16:10:38.990Z,1.37
2018-04-11T16:12:42.684Z,3.27
2018-04-11T16:14:46.381Z,1.00
2018-04-11T16:16:50.151Z,1.27
2018-04-11T16:18:53.089Z,1.97
2018-04-11T16:20:56.073Z,3.53
2018-04-11T16:22:58.984Z,1.27
2018-04-11T16:25:01.922Z,4.63
2018-04-11T16:27:05.729Z,6.87
2018-04-11T16:29:09.408Z,4.13
2018-04-11T16:31:13.108Z,2.53
2018-04-11T16:33:16.929Z,1.50
2018-04-11T16:35:21.035Z,1.30
2018-04-11T16:37:24.717Z,2.67
2018-04-11T16:39:28.403Z,4.00
2018-04-11T16:41:31.376Z,3.20
2018-04-11T16:43:34.292Z,2.13
2018-04-11T16:45:37.965Z,1.50
2018-04-11T16:47:40.896Z,4.17
2018-04-11T16:49:43.813Z,2.00
2018-04-11T16:51:46.715Z,1.87
2018-04-11T16:53:49.666Z,3.53
2018-04-11T16:55:52.580Z,5.00
2018-04-11T16:57:55.513Z,3.43
2018-04-11T16:59:58.448Z,2.87
2018-04-11T17:02:01.360Z,2.10
2018-04-11T17:04:05.052Z,1.50
2018-04-11T17:06:09.556Z,3.23
2018-04-11T17:08:14.100Z,2.33
2018-04-11T17:10:17.121Z,2.10
2018-04-11T17:12:20.069Z,5.63
2018-04-11T17:14:23.042Z,2.33
2018-04-11T17:16:25.957Z,2.80
2018-04-11T17:18:29.003Z,6.47
2018-04-11T17:20:44.629Z,4.63
2018-04-11T17:23:00.756Z,2.23
2018-04-11T17:25:16.331Z,1.87
2018-04-11T17:27:32.038Z,2.10
2018-04-11T17:29:46.884Z,1.63
2018-04-11T17:31:50.572Z,2.23
2018-04-11T17:33:53.680Z,3.13
2018-04-11T17:35:57.360Z,2.70
2018-04-11T17:38:00.280Z,2.30
2018-04-11T17:40:03.243Z,1.73
2018-04-11T17:42:06.906Z,1.83
2018-04-11T17:44:09.864Z,4.33
2018-04-11T17:46:12.760Z,1.63
2018-04-11T17:48:15.664Z,1.50
2018-04-11T17:50:20.116Z,4.90
2018-04-11T17:52:23.044Z,2.30
2018-04-11T17:54:25.981Z,7.63
2018-04-11T17:56:28.887Z,1.53
2018-04-11T17:58:31.850Z,8.33
2018-04-11T18:00:35.668Z,3.60
2018-04-11T18:02:38.583Z,2.87
2018-04-11T18:04:41.512Z,3.50
2018-04-11T18:06:44.408Z,2.40
2018-04-11T18:08:47.582Z,2.30
2018-04-11T18:10:51.782Z,2.20
2018-04-11T18:12:55.454Z,4.73
2018-04-11T18:14:59.909Z,2.50
2018-04-11T18:17:03.569Z,3.23
2018-04-11T18:19:06.505Z,2.30
2018-04-11T18:21:09.433Z,2.90
2018-04-11T18:23:12.439Z,2.10
2018-04-11T18:25:16.138Z,2.57
2018-04-11T18:27:19.817Z,3.50
2018-04-11T18:29:22.777Z,3.93
2018-04-11T18:31:25.724Z,5.90
2018-04-11T18:33:28.660Z,6.03
2018-04-11T18:35:31.601Z,6.30
2018-04-11T18:37:34.537Z,3.60
2018-04-11T18:39:38.242Z,3.63
2018-04-11T18:41:41.904Z,3.00
2018-04-11T18:43:44.817Z,4.60
2018-04-11T18:45:48.512Z,3.40
2018-04-11T18:47:52.920Z,6.67
2018-04-11T18:49:57.407Z,7.23
2018-04-11T18:52:00.317Z,7.73
2018-04-11T18:54:03.256Z,5.00
2018-04-11T18:56:06.184Z,6.30
2018-04-11T18:58:09.089Z,8.77
2018-04-11T19:00:12.852Z,5.03
2018-04-11T19:02:15.981Z,4.13
2018-04-11T19:04:19.997Z,3.57
2018-04-11T19:06:22.912Z,4.67
2018-04-11T19:08:25.951Z,6.20
2018-04-11T19:10:28.916Z,3.47
2018-04-11T19:12:32.123Z,3.43
2018-04-11T19:14:35.718Z,2.40
2018-04-11T19:16:39.027Z,2.80
2018-04-11T19:18:41.942Z,2.90
2018-04-11T19:20:44.885Z,2.13
2018-04-11T19:22:48.780Z,2.33
2018-04-11T19:24:52.756Z,2.13
2018-04-11T19:26:55.983Z,3.73
2018-04-11T19:28:59.002Z,3.93
2018-04-11T19:31:02.297Z,2.63
2018-04-11T19:33:05.207Z,2.40
2018-04-11T19:35:08.194Z,2.60
2018-04-11T19:37:11.114Z,3.23
2018-04-11T19:39:14.381Z,2.87
2018-04-11T19:41:18.040Z,3.07
2018-04-11T19:43:20.948Z,3.30
2018-04-11T19:45:23.881Z,3.00
2018-04-11T19:47:26.789Z,2.60
2018-04-11T19:49:29.689Z,3.53
2018-04-11T19:51:33.380Z,2.50
2018-04-11T19:53:36.337Z,1.93
2018-04-11T19:55:39.212Z,1.83
2018-04-11T19:57:42.252Z,4.70
2018-04-11T19:59:45.235Z,7.03
2018-04-11T20:01:49.037Z,7.70
2018-04-11T20:03:52.721Z,2.00
2018-04-11T20:05:57.125Z,5.93
2018-04-11T20:08:00.196Z,3.87
2018-04-11T20:10:03.121Z,4.33
2018-04-11T20:12:06.038Z,3.27
2018-04-11T20:14:08.975Z,4.00
2018-04-11T20:16:12.644Z,2.03
2018-04-11T20:18:15.556Z,1.73
2018-04-11T20:20:19.252Z,1.47
2018-04-11T20:22:22.932Z,2.97
2018-04-11T20:24:25.858Z,3.90
2018-04-11T20:26:28.764Z,1.77
2018-04-11T20:28:31.675Z,2.60
2018-04-11T20:30:36.226Z,3.00
2018-04-11T20:32:39.915Z,2.57
2018-04-11T20:34:43.608Z,3.17
2018-04-11T20:36:46.620Z,14.25
2018-04-11T20:38:50.287Z,3.83
2018-04-11T20:40:53.213Z,15.87
2018-04-11T20:42:56.116Z,1.87
2018-04-11T20:44:59.136Z,4.33
2018-04-11T20:47:02.808Z,1.63
2018-04-11T20:49:05.713Z,1.40
2018-04-11T20:51:10.156Z,1.53
2018-04-11T20:53:13.829Z,1.90
2018-04-11T20:55:18.245Z,6.17
2018-04-11T20:57:21.191Z,1.80
2018-04-11T20:59:24.094Z,1.30
2018-04-11T21:01:27.029Z,1.30
2018-04-11T21:03:30.721Z,3.33
2018-04-11T21:05:33.641Z,1.00
2018-04-11T21:07:36.678Z,1.77
2018-04-11T21:09:40.349Z,1.90
2018-04-11T21:11:44.794Z,1.93
2018-04-11T21:13:49.224Z,3.47
2018-04-11T21:15:52.194Z,1.80
2018-04-11T21:17:55.159Z,2.70
2018-04-11T21:19:58.088Z,5.93
2018-04-11T21:22:01.022Z,2.70
2018-04-11T21:24:04.023Z,1.70
2018-04-11T21:26:08.415Z,3.80
2018-04-11T21:28:11.343Z,3.03
2018-04-11T21:30:14.262Z,1.77
2018-04-11T21:32:17.287Z,4.37
2018-04-11T21:34:20.944Z,1.40
2018-04-11T21:36:23.851Z,1.30
2018-04-11T21:38:28.308Z,3.00
2018-04-11T21:40:31.203Z,2.00
2018-04-11T21:42:34.148Z,1.50
2018-04-11T21:44:37.828Z,4.23
2018-04-11T21:46:40.830Z,2.20
2018-04-11T21:48:44.516Z,2.70
2018-04-11T21:50:48.209Z,2.63
2018-04-11T21:52:51.149Z,2.60
2018-04-11T21:54:54.880Z,1.40
2018-04-11T21:56:57.793Z,1.10
2018-04-11T21:59:01.476Z,2.37
2018-04-11T22:01:05.154Z,1.90
2018-04-11T22:03:08.090Z,2.50
2018-04-11T22:05:11.029Z,7.60
2018-04-11T22:07:15.440Z,1.50
2018-04-11T22:09:18.670Z,2.20
2018-04-11T22:11:22.357Z,1.77
2018-04-11T22:13:26.163Z,5.90
2018-04-11T22:15:29.860Z,2.13
2018-04-11T22:17:33.544Z,1.67
2018-04-11T22:19:36.441Z,4.60
2018-04-11T22:21:40.148Z,2.70
2018-04-11T22:23:43.824Z,2.10
2018-04-11T22:25:46.744Z,5.70
2018-04-11T22:27:49.651Z,2.40
2018-04-11T22:29:52.587Z,3.93
2018-04-11T22:31:56.244Z,2.00
2018-04-11T22:33:59.245Z,3.92
2018-04-11T22:36:02.253Z,1.73
2018-04-11T22:38:05.915Z,1.63
2018-04-11T22:40:08.853Z,1.90
2018-04-11T22:42:11.779Z,1.77
2018-04-11T22:44:14.700Z,2.23
2018-04-11T22:46:18.498Z,5.13
2018-04-11T22:48:22.201Z,2.13
2018-04-11T22:50:25.898Z,2.20
2018-04-11T22:52:29.559Z,2.20
2018-04-11T22:54:32.464Z,1.97
2018-04-11T22:56:36.179Z,2.40
2018-04-11T22:58:39.844Z,3.83
2018-04-11T23:00:42.779Z,2.30
2018-04-11T23:02:45.706Z,2.03
2018-04-11T23:04:48.725Z,1.60
2018-04-11T23:06:52.424Z,2.63
2018-04-11T23:08:56.104Z,3.20
2018-04-11T23:10:59.025Z,3.73
2018-04-11T23:13:01.944Z,2.47
2018-04-11T23:15:04.872Z,4.07
2018-04-11T23:17:08.551Z,3.80
2018-04-11T23:19:11.457Z,3.10
2018-04-11T23:21:14.452Z,4.00
2018-04-11T23:23:17.363Z,4.03
2018-04-11T23:25:20.398Z,3.57
2018-04-11T23:27:24.059Z,3.00
2018-04-11T23:29:27.081Z,4.10
2018-04-11T23:31:30.796Z,6.63
2018-04-11T23:33:34.456Z,4.70
2018-04-11T23:35:37.390Z,5.30
2018-04-11T23:37:40.338Z,6.20
2018-04-11T23:39:43.326Z,6.60
2018-04-11T23:41:47.006Z,4.90
2018-04-11T23:43:51.424Z,5.50
2018-04-11T23:45:54.373Z,3.80
2018-04-11T23:47:57.283Z,4.77
2018-04-11T23:50:00.289Z,10.63
2018-04-11T23:52:04.001Z,6.30
2018-04-11T23:54:06.903Z,7.37
2018-04-11T23:56:09.804Z,8.67
2018-04-11T23:58:12.741Z,5.03
